createdAt,value
2018-11-05T00:16:10.795Z,95856.55
2018-11-05T00:36:03.421Z,95841.52
2018-11-05T00:38:33.521Z,95851.83
2018-11-05T00:41:03.502Z,95840.66
2018-11-05T00:43:33.477Z,95843.77
2018-11-05T00:46:03.592Z,95851.56
2018-11-05T00:48:33.349Z,95842.79
2018-11-05T01:08:26.766Z,95823.78
2018-11-05T01:28:19.814Z,95817.64
2018-11-05T01:30:49.914Z,95820.83
2018-11-05T01:33:19.466Z,95803.38
2018-11-05T01:35:49.517Z,95806.20
2018-11-05T01:38:19.290Z,95813.33
2018-11-05T01:40:48.977Z,95810.94
2018-11-05T02:00:41.491Z,95795.77
2018-11-05T02:03:11.265Z,95794.92
2018-11-05T02:05:41.129Z,95797.94
2018-11-05T02:08:11.090Z,95792.67
2018-11-05T02:10:40.693Z,95790.55
2018-11-05T02:13:10.445Z,95791.99
2018-11-05T02:15:40.241Z,95787.05
2018-11-05T02:18:09.954Z,95787.80
2018-11-05T02:20:39.591Z,95787.78
2018-11-05T02:23:09.675Z,95785.73
2018-11-05T02:25:39.283Z,95795.30
2018-11-05T02:45:30.963Z,95793.54
2018-11-05T02:48:00.874Z,95793.52
2018-11-05T02:50:30.637Z,95785.51
2018-11-05T03:24:51.397Z,95794.36
2018-11-05T03:27:21.635Z,95793.59
2018-11-05T03:29:51.470Z,95788.69
2018-11-05T03:32:21.217Z,95797.12
2018-11-05T03:34:51.438Z,95787.94
2018-11-05T03:54:43.182Z,95795.79
2018-11-05T03:57:13.223Z,95792.44
2018-11-05T03:59:42.889Z,95799.51
2018-11-05T04:02:12.781Z,95801.64
2018-11-05T04:22:04.465Z,95804.96
2018-11-05T04:24:34.178Z,95807.13
2018-11-05T04:27:03.813Z,95811.80
2018-11-05T04:29:33.715Z,95809.66
2018-11-05T04:49:25.843Z,95805.12
2018-11-05T04:51:55.989Z,95811.57
2018-11-05T04:54:26.060Z,95809.93
2018-11-05T04:56:55.881Z,95808.63
2018-11-05T05:16:47.658Z,95823.48
2018-11-05T05:19:17.258Z,95823.63
2018-11-05T05:39:10.626Z,95828.69
2018-11-05T05:41:40.441Z,95834.52
2018-11-05T05:44:09.894Z,95838.37
2018-11-05T05:46:39.554Z,95841.16
2018-11-05T05:49:09.352Z,95842.62
2018-11-05T05:51:39.073Z,95845.38
2018-11-05T05:54:09.037Z,95840.45
2018-11-05T05:56:38.617Z,95845.69
2018-11-05T05:59:08.171Z,95845.68
2018-11-05T06:01:37.809Z,95846.44
2018-11-05T06:21:28.555Z,95857.05
2018-11-05T06:23:58.548Z,95862.13
2018-11-05T06:26:28.011Z,95857.74
2018-11-05T06:28:57.706Z,95861.06
2018-11-05T06:31:31.064Z,95871.16
2018-11-05T06:34:00.994Z,95865.71
2018-11-05T06:53:53.005Z,95867.77
2018-11-05T07:25:20.526Z,95863.55
2018-11-05T07:45:20.147Z,95869.42
2018-11-05T07:47:50.398Z,95863.06
2018-11-05T07:50:21.302Z,95860.05
2018-11-05T08:10:13.435Z,95862.77
2018-11-05T08:12:43.519Z,95862.51
2018-11-05T08:15:17.710Z,95866.33
2018-11-05T08:35:10.757Z,95851.97
2018-11-05T08:37:40.587Z,95847.31
2018-11-05T08:40:12.458Z,95846.00
2018-11-05T08:42:42.504Z,95848.99
2018-11-05T09:02:34.446Z,95835.03
2018-11-05T09:05:04.420Z,95828.30
2018-11-05T09:07:34.075Z,95822.47
2018-11-05T09:10:04.179Z,95818.19
2018-11-05T09:12:34.145Z,95819.22
2018-11-05T09:15:03.837Z,95816.31
2018-11-05T09:17:34.037Z,95818.16
2018-11-05T09:20:03.890Z,95820.59
2018-11-05T09:22:33.798Z,95810.79
2018-11-05T09:25:03.956Z,95808.91
2018-11-05T09:27:33.967Z,95809.42
2018-11-05T09:30:04.042Z,95808.46
2018-11-05T09:49:55.844Z,95783.16
2018-11-05T09:52:25.485Z,95775.85
2018-11-05T09:54:55.169Z,95781.02
2018-11-05T09:57:25.435Z,95773.53
2018-11-05T09:59:55.430Z,95774.88
2018-11-05T10:19:47.545Z,95749.52
2018-11-05T10:22:17.853Z,95746.89
2018-11-05T10:24:50.083Z,95747.71
2018-11-05T10:27:19.659Z,95742.55
2018-11-05T10:29:49.891Z,95734.27
2018-11-05T10:49:42.905Z,95711.92
2018-11-05T10:52:13.918Z,95713.28
2018-11-05T10:54:43.769Z,95700.51
2018-11-05T11:26:12.362Z,95662.06
2018-11-05T11:28:42.103Z,95664.95
2018-11-05T11:31:11.955Z,95655.97
2018-11-05T11:33:42.004Z,95653.33
2018-11-05T11:36:11.541Z,95646.19
2018-11-05T11:38:41.189Z,95637.74
2018-11-05T11:58:34.051Z,95626.06
2018-11-05T12:01:03.969Z,95623.86
2018-11-05T12:03:34.107Z,95611.16
2018-11-05T12:23:26.758Z,95577.26
2018-11-05T12:25:56.260Z,95579.87
2018-11-05T12:28:26.211Z,95567.82
2018-11-05T12:30:57.322Z,95563.36
2018-11-05T12:33:27.490Z,95569.78
2018-11-05T12:35:59.146Z,95553.99
2018-11-05T12:38:30.298Z,95548.73
2018-11-05T12:41:00.360Z,95557.33
2018-11-05T12:43:29.959Z,95547.97
2018-11-05T12:45:59.912Z,95546.58
2018-11-05T12:48:29.884Z,95543.07
2018-11-05T12:50:59.791Z,95536.63
2018-11-05T12:53:29.660Z,95543.87
2018-11-05T12:55:59.803Z,95537.63
2018-11-05T12:58:29.570Z,95535.42
2018-11-05T13:00:59.211Z,95525.50
2018-11-05T13:03:29.203Z,95532.55
2018-11-05T13:05:58.749Z,95525.45
2018-11-05T13:08:28.750Z,95528.74
2018-11-05T13:10:58.910Z,95530.15
2018-11-05T13:13:28.850Z,95525.91
2018-11-05T13:15:58.560Z,95522.31
2018-11-05T13:18:28.735Z,95517.09
2018-11-05T13:20:58.691Z,95526.23
2018-11-05T13:23:33.889Z,95514.67
2018-11-05T13:26:03.738Z,95464.08
2018-11-05T13:28:33.964Z,95527.31
2018-11-05T13:31:04.482Z,95518.10
2018-11-05T13:33:34.258Z,95513.58
2018-11-05T13:36:04.252Z,95517.98
2018-11-05T13:38:34.340Z,95517.80
2018-11-05T13:41:04.065Z,95517.33
2018-11-05T13:43:33.830Z,95522.66
2018-11-05T13:46:04.078Z,95525.48
2018-11-05T13:48:33.829Z,95518.55
2018-11-05T13:51:03.237Z,95515.95
2018-11-05T13:53:33.038Z,95518.87
2018-11-05T13:56:02.659Z,95516.73
2018-11-05T13:58:32.618Z,95519.20
2018-11-05T14:01:02.770Z,95510.94
2018-11-05T14:03:32.510Z,95517.87
2018-11-05T14:06:02.071Z,95520.62
2018-11-05T14:08:31.892Z,95514.33
2018-11-05T14:11:01.679Z,95516.03
2018-11-05T14:13:31.481Z,95526.86
2018-11-05T14:16:01.222Z,95527.73
2018-11-05T14:18:31.122Z,95519.23
2018-11-05T14:21:00.736Z,95526.73
2018-11-05T14:23:30.717Z,95521.23
2018-11-05T14:26:00.606Z,95526.80
2018-11-05T14:28:30.742Z,95530.66
2018-11-05T14:31:00.493Z,95527.23
2018-11-05T14:33:30.366Z,95536.59
2018-11-05T14:36:00.213Z,95536.69
2018-11-05T14:38:30.235Z,95535.63
2018-11-05T14:40:59.837Z,95536.69
2018-11-05T14:43:29.594Z,95545.66
2018-11-05T14:45:59.701Z,95550.91
2018-11-05T14:48:29.573Z,95553.23
2018-11-05T14:50:59.393Z,95552.81
2018-11-05T14:53:29.873Z,95558.54
2018-11-05T14:55:59.578Z,95561.42
2018-11-05T14:58:29.041Z,95566.13
2018-11-05T15:00:59.065Z,95559.27
2018-11-05T15:29:33.551Z,95587.37
2018-11-05T15:32:03.871Z,95592.18
2018-11-05T15:34:33.891Z,95593.13
2018-11-05T15:51:32.850Z,95611.60
2018-11-05T15:54:02.100Z,95606.91
2018-11-05T15:56:31.947Z,95607.98
2018-11-05T15:59:02.040Z,95611.95
2018-11-05T16:01:32.008Z,95614.36
2018-11-05T16:04:01.480Z,95612.68
2018-11-05T16:06:31.435Z,95618.25
2018-11-05T16:09:00.871Z,95618.69
2018-11-05T16:11:30.840Z,95618.48
2018-11-05T16:14:00.650Z,95626.16
2018-11-05T16:16:30.983Z,95625.61
2018-11-05T16:19:01.056Z,95625.38
2018-11-05T16:21:30.946Z,95634.66
2018-11-05T16:24:01.145Z,95633.89
2018-11-05T16:26:31.544Z,95634.16
2018-11-05T16:29:01.781Z,95636.00
2018-11-05T16:31:31.970Z,95640.77
2018-11-05T16:34:02.176Z,95634.97
2018-11-05T16:36:32.434Z,95645.78
2018-11-05T16:39:02.072Z,95642.88
2018-11-05T16:41:31.826Z,95646.58
2018-11-05T16:44:01.726Z,95642.88
2018-11-05T16:46:31.146Z,95638.65
2018-11-05T16:49:00.696Z,95635.48
2018-11-05T16:51:30.528Z,95641.83
2018-11-05T16:54:00.243Z,95648.14
2018-11-05T16:56:29.937Z,95645.78
2018-11-05T16:58:59.865Z,95648.68
2018-11-05T17:01:29.888Z,95642.34
2018-11-05T17:03:59.386Z,95652.32
2018-11-05T17:06:28.828Z,95649.93
2018-11-05T17:08:58.495Z,95651.24
2018-11-05T17:11:28.407Z,95650.42
2018-11-05T17:13:58.294Z,95664.59
2018-11-05T17:16:28.017Z,95658.41
2018-11-05T17:18:57.504Z,95655.18
2018-11-05T17:21:27.454Z,95663.04
2018-11-05T17:23:57.156Z,95660.89
2018-11-05T17:26:27.275Z,95672.36
2018-11-05T17:28:56.808Z,95669.33
2018-11-05T17:31:26.680Z,95674.16
2018-11-05T17:33:56.613Z,95670.97
2018-11-05T17:36:26.750Z,95671.86
2018-11-05T17:38:56.247Z,95674.59
2018-11-05T17:41:25.912Z,95677.99
2018-11-05T17:43:55.728Z,95688.27
2018-11-05T17:46:25.525Z,95689.02
2018-11-05T17:48:55.094Z,95689.52
2018-11-05T17:51:24.782Z,95684.19
2018-11-05T17:53:55.245Z,95689.91
2018-11-05T17:56:24.831Z,95691.71
2018-11-05T17:58:54.977Z,95701.00
2018-11-05T18:01:24.788Z,95701.62
2018-11-05T18:03:54.573Z,95694.00
2018-11-05T18:06:24.609Z,95693.19
2018-11-05T18:08:54.545Z,95699.30
2018-11-05T18:11:24.223Z,95707.27
2018-11-05T18:13:53.884Z,95704.34
2018-11-05T18:16:23.605Z,95716.34
2018-11-05T18:18:53.594Z,95709.79
2018-11-05T18:21:23.176Z,95715.29
2018-11-05T18:23:52.762Z,95709.64
2018-11-05T18:26:22.731Z,95718.92
2018-11-05T18:28:52.910Z,95715.09
2018-11-05T18:31:22.523Z,95715.02
2018-11-05T18:33:52.469Z,95715.16
2018-11-05T18:36:22.294Z,95720.77
2018-11-05T18:38:52.143Z,95722.78
2018-11-05T18:41:21.783Z,95723.71
2018-11-05T18:43:51.753Z,95724.66
2018-11-05T18:46:21.347Z,95724.91
2018-11-05T18:48:50.819Z,95732.58
2018-11-05T18:51:20.542Z,95728.98
2018-11-05T18:53:50.112Z,95730.22
2018-11-05T18:56:19.709Z,95734.64
2018-11-05T18:58:49.366Z,95736.41
2018-11-05T19:01:18.942Z,95743.26
2018-11-05T19:03:48.646Z,95745.43
2018-11-05T19:06:18.807Z,95748.20
2018-11-05T19:08:48.469Z,95746.36
2018-11-05T19:11:18.829Z,95755.81
2018-11-05T19:13:48.863Z,95759.12
2018-11-05T19:16:18.646Z,95763.04
2018-11-05T19:18:48.367Z,95762.00
2018-11-05T19:21:18.513Z,95765.74
2018-11-05T19:23:48.576Z,95764.45
2018-11-05T19:26:17.956Z,95765.80
2018-11-05T19:28:47.874Z,95764.64
2018-11-05T19:31:17.644Z,95769.56
2018-11-05T19:33:47.222Z,95771.38
2018-11-05T19:36:18.377Z,95778.80
2018-11-05T19:38:48.019Z,95773.09
2018-11-05T19:41:17.652Z,95777.47
2018-11-05T19:43:48.034Z,95777.89
2018-11-05T19:46:17.738Z,95775.84
2018-11-05T19:48:47.526Z,95774.95
2018-11-05T19:51:17.099Z,95782.06
2018-11-05T19:53:46.689Z,95778.39
2018-11-05T19:56:16.326Z,95782.80
2018-11-05T19:58:46.330Z,95786.34
2018-11-05T20:01:15.752Z,95788.48
2018-11-05T20:03:45.519Z,95778.83
2018-11-05T20:06:15.151Z,95782.44
2018-11-05T20:08:44.786Z,95788.45
2018-11-05T20:11:14.185Z,95788.58
2018-11-05T20:13:44.561Z,95783.34
2018-11-05T20:16:14.076Z,95788.11
2018-11-05T20:18:44.081Z,95792.20
2018-11-05T20:21:13.761Z,95794.16
2018-11-05T20:23:43.604Z,95779.02
2018-11-05T20:26:13.292Z,95785.73
2018-11-05T20:28:43.204Z,95786.70
2018-11-05T20:31:12.975Z,95784.69
2018-11-05T20:33:42.822Z,95787.23
2018-11-05T20:36:12.581Z,95787.41
2018-11-05T20:38:41.963Z,95790.66
2018-11-05T20:41:11.635Z,95785.42
2018-11-05T20:43:41.444Z,95788.44
2018-11-05T20:46:11.116Z,95777.16
2018-11-05T20:48:40.946Z,95788.16
2018-11-05T20:51:11.005Z,95780.47
2018-11-05T20:53:40.697Z,95775.67
2018-11-05T20:56:10.455Z,95774.36
2018-11-05T20:58:40.837Z,95785.28
2018-11-05T21:01:10.550Z,95783.91
2018-11-05T21:03:40.291Z,95781.41
2018-11-05T21:06:10.451Z,95780.57
2018-11-05T21:08:40.211Z,95777.54
2018-11-05T21:11:09.841Z,95781.34
2018-11-05T21:13:39.813Z,95773.04
2018-11-05T21:16:09.367Z,95779.99
2018-11-05T21:18:39.271Z,95778.50
2018-11-05T21:21:09.604Z,95783.36
2018-11-05T21:23:39.222Z,95781.35
2018-11-05T21:26:08.938Z,95779.38
2018-11-05T21:28:39.006Z,95775.58
2018-11-05T21:31:08.651Z,95781.16
2018-11-05T21:33:38.302Z,95775.00
2018-11-05T21:36:08.294Z,95779.85
2018-11-05T21:38:44.546Z,95778.27
2018-11-05T21:41:14.394Z,95773.93
2018-11-05T21:43:44.074Z,95778.16
2018-11-05T21:46:13.579Z,95783.38
2018-11-05T21:48:43.222Z,95785.44
2018-11-05T21:51:12.700Z,95770.06
2018-11-05T21:53:42.212Z,95779.91
2018-11-05T21:56:11.978Z,95782.33
2018-11-05T21:58:41.547Z,95792.45
2018-11-05T22:01:11.218Z,95785.04
2018-11-05T22:03:41.206Z,95779.36
2018-11-05T22:06:10.799Z,95780.81
2018-11-05T22:08:40.393Z,95780.39
2018-11-05T22:11:10.126Z,95782.00
2018-11-05T22:13:39.965Z,95776.77
2018-11-05T22:16:09.777Z,95773.30
2018-11-05T22:18:39.965Z,95777.09
2018-11-05T22:21:10.344Z,95779.11
2018-11-05T22:23:40.065Z,95768.66
2018-11-05T22:26:10.131Z,95783.67
2018-11-05T22:28:39.789Z,95782.24
2018-11-05T22:31:09.471Z,95784.63
2018-11-05T22:33:39.086Z,95780.27
2018-11-05T22:36:08.801Z,95785.09
2018-11-05T22:38:38.539Z,95781.00
2018-11-05T22:41:08.130Z,95780.73
2018-11-05T22:43:37.742Z,95780.14
2018-11-05T22:46:07.692Z,95776.23
2018-11-05T22:48:37.507Z,95781.90
2018-11-05T22:51:07.285Z,95787.27
2018-11-05T22:53:36.715Z,95786.10
2018-11-05T22:56:07.251Z,95780.30
2018-11-05T22:58:36.814Z,95785.50
2018-11-05T23:01:08.832Z,95788.55
2018-11-05T23:03:38.405Z,95788.91
2018-11-05T23:06:08.006Z,95787.39
2018-11-05T23:08:37.917Z,95783.03
2018-11-05T23:11:07.527Z,95790.80
2018-11-05T23:13:37.138Z,95785.45
2018-11-05T23:16:06.828Z,95787.25
2018-11-05T23:18:36.679Z,95784.50
2018-11-05T23:21:06.588Z,95785.05
2018-11-05T23:23:36.855Z,95781.14
2018-11-05T23:26:06.349Z,95781.72
2018-11-05T23:28:36.129Z,95785.36
2018-11-05T23:31:06.503Z,95789.41
2018-11-05T23:33:35.900Z,95794.34
2018-11-05T23:36:05.584Z,95803.52
2018-11-05T23:38:35.409Z,95797.94
2018-11-05T23:41:05.447Z,95800.05
2018-11-05T23:43:34.994Z,95796.50
2018-11-05T23:46:04.906Z,95803.58
2018-11-05T23:48:34.502Z,95806.23
2018-11-05T23:51:04.731Z,95811.97
2018-11-05T23:53:34.802Z,95805.44
2018-11-05T23:56:04.664Z,95809.13
2018-11-05T23:58:34.273Z,95808.29
